• Join FlightAware (Why Join?)
  • Login
  • US Flag 
01:49PM EDT


 

Airport Tracker/Info


-or-


 

Live Flight TrackerFlight Track Log ✈ JUS327 ✈ 05-Jul-2013 ✈ MMIO / SLW - KLRD

Flight Track Log - Related Links

Times and Time Zones

All times are in EDT time to prevent confusion due to time zone crossing. See the JUS327 flight status page for this flight to view local times or setup timezone preferences in your user account.

Time Position Orientation Groundspeed Altitude Reporting Facility
EDT Latitude Longitude Course Direction KTS MPH feet Rate Location/Type
01:51AM 26.1072 -100.5353 28° Northeast 353 406 24,100  Level Houston Center
01:52AM 26.2011 -100.4769 29° Northeast 369 425 25,000 420 Climbing Houston Center
01:53AM 25.5523 -100.9260 40° Northeast  Level FlightAware Approximate
01:53AM 26.2961 -100.4239 27° Northeast 376 433 25,000  Level Houston Center
01:54AM 25.6094 -100.8724 40° Northeast  Level FlightAware Approximate
01:54AM 26.3886 -100.3594 32° Northeast 385 443 25,000  Level Houston Center
01:55AM 25.6637 -100.8273 34° Northeast  Level FlightAware Approximate
01:55AM 26.4850 -100.3031 28° Northeast 388 447 25,000  Level Houston Center
01:56AM 25.7272 -100.7837 28° Northeast  Level FlightAware Approximate
01:56AM 26.5761 -100.2317 35° Northeast 394 453 24,900  Level Houston Center
01:57AM 26.6675 -100.1650 33° Northeast 395 455 25,000  Climbing Houston Center
01:58AM 26.7597 -100.0978 33° Northeast 394 453 25,000 -60 Level Houston Center
01:59AM 26.8494 -100.0339 32° Northeast 388 447 24,900 -1,380 Descending Houston Center
02:00AM 26.9422 -99.9756 29° Northeast 382 440 22,300 -2,580 Descending Houston Center
02:01AM 27.0250 -99.9047 37° Northeast 378 435 19,800 -2,760 Descending Houston Center
02:02AM 27.1069 -99.8389 36° Northeast 367 422 16,800 -2,760 Descending Houston Center
02:03AM 27.1842 -99.7717 38° Northeast 360 414 14,300 -2,280 Descending Houston Center
02:04AM 27.2581 -99.7103 36° Northeast 346 398 12,300 -2,160 Descending Houston Center
02:05AM 27.3314 -99.6617 30° Northeast 324 373 10,000 -2,040 Descending Houston Center
02:06AM 27.3975 -99.6092 35° Northeast 307 353 8,300 -1,860 Descending Houston Center
02:07AM 27.4672 -99.5767 22° Northeast 289 333 6,300 -1,920 Descending Houston Center
02:08AM 27.5425 -99.5572 13° North 278 320 4,500 -1,500 Descending Houston Center
02:09AM 27.6147 -99.5439 North 272 313 3,400 -960 Descending Houston Center
02:10AM 27.6489 -99.5086 42° Northeast 226 260 2,600 -840 Descending Houston Center
02:11AM 27.6358 -99.4681 110° East 175 201 1,800 -840 Descending Houston Center